createdAt,value
2023-04-15T00:00:54.763Z,10.76
2023-04-15T00:02:48.602Z,10.74
2023-04-15T00:04:41.657Z,10.72
2023-04-15T00:06:34.528Z,10.70
2023-04-15T00:08:27.682Z,10.69
2023-04-15T00:10:20.529Z,10.67
2023-04-15T00:12:13.378Z,10.67
2023-04-15T00:14:07.552Z,10.65
2023-04-15T00:16:00.962Z,10.64
2023-04-15T00:17:53.869Z,10.62
2023-04-15T00:19:46.702Z,10.60
2023-04-15T00:21:39.549Z,10.59
2023-04-15T00:23:32.353Z,10.58
2023-04-15T00:25:25.140Z,10.57
2023-04-15T00:27:17.996Z,10.56
2023-04-15T00:29:10.931Z,10.55
2023-04-15T00:31:04.541Z,10.54
2023-04-15T00:32:57.552Z,10.53
2023-04-15T00:34:50.904Z,10.54
2023-04-15T00:36:44.874Z,10.53
2023-04-15T00:38:38.644Z,10.51
2023-04-15T00:40:31.590Z,10.49
2023-04-15T00:42:25.662Z,10.47
2023-04-15T00:44:19.236Z,10.45
2023-04-15T00:46:15.952Z,10.43
2023-04-15T00:48:09.629Z,10.40
2023-04-15T00:50:02.482Z,10.37
2023-04-15T00:51:55.728Z,10.35
2023-04-15T00:53:51.952Z,10.32
2023-04-15T00:55:45.315Z,10.30
2023-04-15T00:57:39.601Z,10.28
2023-04-15T00:59:34.178Z,10.26
2023-04-15T01:01:27.463Z,10.23
2023-04-15T01:03:22.294Z,10.21
2023-04-15T01:05:18.735Z,10.20
2023-04-15T01:07:11.622Z,10.19
2023-04-15T01:09:04.759Z,10.16
2023-04-15T01:11:00.057Z,10.14
2023-04-15T01:12:53.212Z,10.13
2023-04-15T01:14:46.676Z,10.13
2023-04-15T01:16:40.031Z,10.12
2023-04-15T01:18:33.595Z,10.11
2023-04-15T01:20:27.620Z,10.10
2023-04-15T01:22:21.227Z,10.09
2023-04-15T01:24:18.682Z,10.08
2023-04-15T01:26:12.232Z,10.07
2023-04-15T01:28:05.192Z,10.05
2023-04-15T01:29:58.653Z,10.04
2023-04-15T01:31:53.344Z,10.03
2023-04-15T01:33:47.219Z,10.02
2023-04-15T01:35:41.289Z,10.00
2023-04-15T01:37:34.761Z,9.99
2023-04-15T01:39:27.593Z,9.99
2023-04-15T01:41:29.437Z,9.99
2023-04-15T01:43:22.312Z,9.97
2023-04-15T01:45:15.662Z,9.96
2023-04-15T01:47:08.706Z,9.95
2023-04-15T01:49:01.838Z,9.94
2023-04-15T01:50:57.367Z,9.93
2023-04-15T01:52:50.216Z,9.92
2023-04-15T01:54:44.387Z,9.90
2023-04-15T01:56:39.194Z,9.89
2023-04-15T01:58:32.234Z,9.89
2023-04-15T02:00:25.101Z,9.89
2023-04-15T02:02:18.368Z,9.88
2023-04-15T02:04:16.820Z,9.86
2023-04-15T02:06:09.659Z,9.84
2023-04-15T02:08:02.711Z,9.84
2023-04-15T02:09:55.657Z,9.84
2023-04-15T02:11:48.931Z,9.83
2023-04-15T02:13:41.877Z,9.83
2023-04-15T02:15:34.729Z,9.83
2023-04-15T02:17:27.696Z,9.83
2023-04-15T02:19:20.606Z,9.83
2023-04-15T02:21:14.066Z,9.83
2023-04-15T02:23:07.834Z,9.83
2023-04-15T02:25:01.519Z,9.84
2023-04-15T02:26:54.655Z,9.85
2023-04-15T02:28:49.133Z,9.86
2023-04-15T02:30:42.090Z,9.85
2023-04-15T02:32:35.225Z,9.85
2023-04-15T02:34:28.189Z,9.84
2023-04-15T02:36:24.101Z,9.84
2023-04-15T02:38:18.087Z,9.83
2023-04-15T02:40:15.015Z,9.83
2023-04-15T02:42:07.863Z,9.82
2023-04-15T02:44:00.891Z,9.82
2023-04-15T02:45:54.536Z,9.81
2023-04-15T02:47:47.767Z,9.82
2023-04-15T02:49:41.085Z,9.81
2023-04-15T02:51:33.933Z,9.81
2023-04-15T02:53:26.989Z,9.81
2023-04-15T02:55:19.929Z,9.82
2023-04-15T02:57:13.085Z,9.81
2023-04-15T02:59:06.236Z,9.81
2023-04-15T03:00:59.130Z,9.80
2023-04-15T03:02:56.803Z,9.79
2023-04-15T03:04:49.794Z,9.78
2023-04-15T03:06:42.744Z,9.75
2023-04-15T03:08:35.704Z,9.71
2023-04-15T03:10:28.623Z,9.68
2023-04-15T03:12:21.685Z,9.65
2023-04-15T03:14:15.756Z,9.62
2023-04-15T03:16:11.511Z,9.60
2023-04-15T03:18:04.728Z,9.58
2023-04-15T03:19:57.717Z,9.55
2023-04-15T03:21:50.829Z,9.53
2023-04-15T03:23:43.679Z,9.51
2023-04-15T03:25:37.549Z,9.48
2023-04-15T03:27:31.208Z,9.45
2023-04-15T03:29:26.112Z,9.43
2023-04-15T03:31:18.937Z,9.40
2023-04-15T03:33:12.500Z,9.38
2023-04-15T03:35:06.493Z,9.37
2023-04-15T03:36:59.636Z,9.34
2023-04-15T03:38:53.112Z,9.31
2023-04-15T03:40:47.172Z,9.28
2023-04-15T03:42:40.344Z,9.25
2023-04-15T03:44:33.274Z,9.22
2023-04-15T03:46:26.856Z,9.20
2023-04-15T03:48:19.833Z,9.18
2023-04-15T03:50:12.941Z,9.15
2023-04-15T03:52:06.298Z,9.15
2023-04-15T03:53:59.150Z,9.14
2023-04-15T03:55:52.599Z,9.13
2023-04-15T03:57:46.573Z,9.11
2023-04-15T03:59:39.419Z,9.10
2023-04-15T04:01:32.403Z,9.07
2023-04-15T04:03:26.018Z,9.04
2023-04-15T04:05:19.184Z,9.01
2023-04-15T04:07:18.534Z,9.00
2023-04-15T04:09:11.532Z,8.99
2023-04-15T04:11:05.197Z,8.98
2023-04-15T04:12:58.172Z,8.97
2023-04-15T04:14:51.602Z,8.99
2023-04-15T04:16:45.019Z,8.97
2023-04-15T04:18:38.013Z,8.96
2023-04-15T04:20:32.190Z,8.95
2023-04-15T04:22:25.649Z,8.93
2023-04-15T04:24:18.597Z,8.91
2023-04-15T04:26:11.545Z,8.91
2023-04-15T04:28:04.598Z,8.89
2023-04-15T04:29:57.751Z,8.88
2023-04-15T04:31:50.717Z,8.86
2023-04-15T04:33:43.746Z,8.85
2023-04-15T04:35:37.836Z,8.86
2023-04-15T04:37:31.074Z,8.87
2023-04-15T04:39:24.029Z,8.86
2023-04-15T04:41:16.870Z,8.85
2023-04-15T04:43:10.234Z,8.86
2023-04-15T04:45:03.544Z,8.86
2023-04-15T04:46:56.953Z,8.88
2023-04-15T04:48:49.989Z,8.89
2023-04-15T04:50:43.387Z,8.92
2023-04-15T04:52:36.909Z,8.94
2023-04-15T04:54:31.292Z,8.95
2023-04-15T04:56:24.142Z,8.95
2023-04-15T04:58:17.085Z,8.96
2023-04-15T05:00:10.654Z,8.97
2023-04-15T05:02:04.010Z,8.96
2023-04-15T05:03:57.191Z,8.97
2023-04-15T05:05:50.209Z,8.97
2023-04-15T05:07:43.168Z,8.96
2023-04-15T05:09:36.932Z,8.94
2023-04-15T05:11:29.978Z,8.94
2023-04-15T05:13:22.927Z,8.94
2023-04-15T05:15:15.873Z,8.93
2023-04-15T05:17:08.993Z,8.94
2023-04-15T05:19:02.182Z,8.94
2023-04-15T05:20:55.436Z,8.95
2023-04-15T05:22:48.282Z,8.94
2023-04-15T05:24:41.245Z,8.94
2023-04-15T05:26:34.100Z,8.93
2023-04-15T05:28:27.439Z,8.95
2023-04-15T05:30:20.793Z,8.96
2023-04-15T05:32:13.635Z,8.97
2023-04-15T05:34:07.303Z,8.97
2023-04-15T05:36:00.151Z,8.99
2023-04-15T05:37:52.996Z,8.99
2023-04-15T05:39:45.840Z,9.00
2023-04-15T05:41:38.789Z,9.00
2023-04-15T05:43:31.766Z,9.01
2023-04-15T05:45:24.687Z,9.01
2023-04-15T05:47:17.700Z,9.01
2023-04-15T05:49:10.802Z,9.01
2023-04-15T05:51:03.836Z,9.01
2023-04-15T05:52:56.990Z,9.00
2023-04-15T05:54:49.836Z,9.01
2023-04-15T05:56:42.891Z,9.01
2023-04-15T05:58:35.943Z,9.02
2023-04-15T06:00:28.900Z,9.02
2023-04-15T06:02:22.278Z,9.03
2023-04-15T06:04:15.579Z,9.03
2023-04-15T06:06:08.845Z,9.04
2023-04-15T06:08:02.113Z,9.05
2023-04-15T06:09:54.958Z,9.05
2023-04-15T06:11:47.918Z,9.06
2023-04-15T06:13:40.858Z,9.08
2023-04-15T06:15:33.907Z,9.08
2023-04-15T06:17:26.829Z,9.09
2023-04-15T06:19:19.696Z,9.10
2023-04-15T06:21:12.959Z,9.12
2023-04-15T06:23:06.434Z,9.12
2023-04-15T06:24:59.374Z,9.14
2023-04-15T06:26:52.207Z,9.16
2023-04-15T06:28:45.050Z,9.19
2023-04-15T06:30:38.611Z,9.20
2023-04-15T06:32:32.604Z,9.22
2023-04-15T06:34:25.733Z,9.24
2023-04-15T06:36:18.689Z,9.24
2023-04-15T06:38:11.537Z,9.26
2023-04-15T06:40:05.366Z,9.27
2023-04-15T06:41:58.349Z,9.28
2023-04-15T06:43:51.605Z,9.28
2023-04-15T06:45:44.848Z,9.29
2023-04-15T06:47:37.869Z,9.31
2023-04-15T06:49:30.754Z,9.32
2023-04-15T06:51:26.557Z,9.33
2023-04-15T06:53:19.621Z,9.36
2023-04-15T06:55:12.780Z,9.37
2023-04-15T06:57:07.251Z,9.39
2023-04-15T06:59:00.339Z,9.39
2023-04-15T07:00:53.544Z,9.40
2023-04-15T07:02:47.003Z,9.41
2023-04-15T07:04:40.613Z,9.43
2023-04-15T07:06:34.049Z,9.44
2023-04-15T07:08:26.893Z,9.45
2023-04-15T07:10:20.529Z,9.47
2023-04-15T07:12:13.407Z,9.48
2023-04-15T07:14:06.966Z,9.49
2023-04-15T07:16:00.436Z,9.50
2023-04-15T07:17:53.523Z,9.51
2023-04-15T07:19:46.606Z,9.53
2023-04-15T07:21:41.687Z,9.53
2023-04-15T07:23:34.983Z,9.55
2023-04-15T07:25:27.831Z,9.55
2023-04-15T07:27:21.069Z,9.57
2023-04-15T07:29:13.936Z,9.56
2023-04-15T07:31:07.082Z,9.56
2023-04-15T07:33:00.492Z,9.56
2023-04-15T07:34:53.798Z,9.56
2023-04-15T07:36:50.576Z,9.56
2023-04-15T07:38:43.688Z,9.56
2023-04-15T07:40:36.514Z,9.58
2023-04-15T07:42:29.486Z,9.59
2023-04-15T07:44:22.333Z,9.60
2023-04-15T07:46:15.646Z,9.59
2023-04-15T07:48:08.639Z,9.60
2023-04-15T07:50:02.510Z,9.60
2023-04-15T07:51:56.713Z,9.59
2023-04-15T07:53:50.479Z,9.60
2023-04-15T07:55:43.297Z,9.61
2023-04-15T07:57:37.382Z,9.61
2023-04-15T07:59:31.242Z,9.62
2023-04-15T08:01:24.090Z,9.63
2023-04-15T08:03:17.512Z,9.63
2023-04-15T08:05:11.007Z,9.64
2023-04-15T08:07:05.188Z,9.64
2023-04-15T08:08:58.189Z,9.64
2023-04-15T08:10:52.651Z,9.66
2023-04-15T08:12:49.359Z,9.67
2023-04-15T08:14:42.318Z,9.68
2023-04-15T08:16:35.248Z,9.69
2023-04-15T08:18:28.197Z,9.74
2023-04-15T08:20:21.073Z,9.77
2023-04-15T08:22:16.026Z,9.79
2023-04-15T08:24:11.851Z,9.79
2023-04-15T08:26:05.112Z,9.80
2023-04-15T08:27:58.274Z,9.81
2023-04-15T08:29:51.525Z,9.83
2023-04-15T08:31:45.091Z,9.84
2023-04-15T08:33:38.129Z,9.85
2023-04-15T08:35:31.692Z,9.85
2023-04-15T08:37:24.536Z,9.86
2023-04-15T08:39:18.306Z,9.88
2023-04-15T08:41:20.268Z,9.89
2023-04-15T08:43:21.551Z,9.91
2023-04-15T08:45:15.071Z,9.92
2023-04-15T08:47:09.147Z,9.94
2023-04-15T08:49:05.489Z,9.96
2023-04-15T08:50:59.239Z,9.99
2023-04-15T08:52:55.917Z,10.02
2023-04-15T08:54:48.926Z,10.04
2023-04-15T08:56:42.803Z,10.08
2023-04-15T08:58:37.281Z,10.10
2023-04-15T09:00:31.490Z,10.14
2023-04-15T09:02:30.859Z,10.17
2023-04-15T09:04:23.875Z,10.21
2023-04-15T09:06:17.992Z,10.25
2023-04-15T09:08:10.897Z,10.29
2023-04-15T09:10:04.837Z,10.32
2023-04-15T09:11:57.804Z,10.34
2023-04-15T09:13:51.793Z,10.38
2023-04-15T09:15:44.989Z,10.40
2023-04-15T09:17:43.727Z,10.42
2023-04-15T09:19:36.668Z,10.45
2023-04-15T09:21:32.011Z,10.47
2023-04-15T09:23:24.860Z,10.49
2023-04-15T09:25:23.432Z,10.52
2023-04-15T09:27:16.997Z,10.55
2023-04-15T09:29:13.551Z,10.58
2023-04-15T09:31:06.492Z,10.62
2023-04-15T09:33:11.089Z,10.66
2023-04-15T09:35:14.232Z,10.72
2023-04-15T09:37:08.020Z,10.77
2023-04-15T09:39:01.139Z,10.83
2023-04-15T09:40:54.665Z,10.90
2023-04-15T09:42:57.251Z,10.95
2023-04-15T09:44:52.236Z,11.00
2023-04-15T09:46:46.522Z,11.05
2023-04-15T09:48:39.573Z,11.08
2023-04-15T09:50:41.439Z,11.11
2023-04-15T09:52:34.578Z,11.13
2023-04-15T09:54:38.496Z,11.16
2023-04-15T09:56:42.262Z,11.17
2023-04-15T09:58:37.273Z,11.18
2023-04-15T10:00:31.599Z,11.20
2023-04-15T10:02:24.688Z,11.22
2023-04-15T10:04:18.399Z,11.23
2023-04-15T10:06:11.792Z,11.25
2023-04-15T10:08:04.923Z,11.26
2023-04-15T10:10:02.388Z,11.22
2023-04-15T10:11:56.130Z,11.18
2023-04-15T10:13:50.673Z,11.08
2023-04-15T10:15:47.506Z,10.99
2023-04-15T10:17:44.076Z,10.91
2023-04-15T10:19:37.724Z,10.87
2023-04-15T10:21:30.864Z,10.83
2023-04-15T10:23:24.640Z,10.80
2023-04-15T10:25:18.529Z,10.79
2023-04-15T10:27:11.795Z,10.78
2023-04-15T10:29:05.451Z,10.78
2023-04-15T10:30:59.864Z,10.76
2023-04-15T10:32:53.733Z,10.73
2023-04-15T10:34:48.610Z,10.74
2023-04-15T10:36:41.745Z,10.81
2023-04-15T10:38:38.734Z,10.81
2023-04-15T10:40:32.879Z,10.78
2023-04-15T10:42:34.481Z,10.74
2023-04-15T10:44:27.263Z,10.71
2023-04-15T10:46:35.350Z,10.72
2023-04-15T10:48:28.214Z,10.70
2023-04-15T10:50:21.463Z,10.69
2023-04-15T10:52:16.357Z,10.67
2023-04-15T10:54:25.427Z,10.65
2023-04-15T10:56:18.845Z,10.61
2023-04-15T10:58:11.769Z,10.57
2023-04-15T11:00:14.745Z,10.53
2023-04-15T11:02:08.325Z,10.50
2023-04-15T11:04:02.060Z,10.47
2023-04-15T11:05:56.002Z,10.43
2023-04-15T11:07:59.363Z,10.41
2023-04-15T11:09:52.403Z,10.39
2023-04-15T11:12:11.149Z,10.33
2023-04-15T11:14:04.822Z,10.26
2023-04-15T11:16:03.386Z,10.22
2023-04-15T11:17:58.044Z,10.18
2023-04-15T11:20:00.482Z,10.15
2023-04-15T11:21:55.227Z,10.11
2023-04-15T11:23:52.237Z,10.10
2023-04-15T11:25:46.401Z,10.07
2023-04-15T11:27:39.903Z,10.01
2023-04-15T11:29:33.403Z,9.96
2023-04-15T11:31:28.746Z,9.93
2023-04-15T11:33:22.686Z,9.89
2023-04-15T11:35:18.917Z,9.88
2023-04-15T11:37:13.623Z,9.89
2023-04-15T11:39:07.724Z,9.89
2023-04-15T11:41:01.334Z,9.88
2023-04-15T11:43:14.396Z,9.88
2023-04-15T11:45:12.423Z,9.91
2023-04-15T11:47:23.364Z,9.92
2023-04-15T11:49:31.318Z,9.96
2023-04-15T11:51:24.239Z,9.99
2023-04-15T11:53:17.289Z,9.99
2023-04-15T11:55:10.799Z,10.02
2023-04-15T11:57:04.213Z,10.03
2023-04-15T11:58:59.951Z,10.04
2023-04-15T12:01:06.828Z,10.05
2023-04-15T12:03:13.295Z,10.06
2023-04-15T12:05:07.562Z,10.06
2023-04-15T12:07:06.113Z,10.05
2023-04-15T12:09:13.814Z,10.06
2023-04-15T12:11:09.018Z,10.06
2023-04-15T12:13:07.710Z,10.09
2023-04-15T12:15:04.644Z,10.09
2023-04-15T12:17:01.589Z,10.13
2023-04-15T12:18:57.084Z,10.14
2023-04-15T12:20:51.998Z,10.12
2023-04-15T12:22:46.440Z,10.13
2023-04-15T12:24:44.351Z,10.14
2023-04-15T12:26:48.456Z,10.16
2023-04-15T12:28:42.615Z,10.18
2023-04-15T12:30:35.519Z,10.18
2023-04-15T12:32:31.089Z,10.18
2023-04-15T12:34:33.570Z,10.18
2023-04-15T12:36:28.547Z,10.17
2023-04-15T12:38:21.490Z,10.18
2023-04-15T12:40:14.267Z,10.18
2023-04-15T12:42:08.616Z,10.20
2023-04-15T12:44:02.104Z,10.24
2023-04-15T12:46:01.847Z,10.26
2023-04-15T12:47:55.689Z,10.30
2023-04-15T12:49:53.059Z,10.32
2023-04-15T12:51:49.726Z,10.30
2023-04-15T12:53:47.875Z,10.29
2023-04-15T12:55:49.162Z,10.29
2023-04-15T12:57:46.215Z,10.30
2023-04-15T12:59:39.357Z,10.29
2023-04-15T13:01:32.255Z,10.31
2023-04-15T13:03:25.395Z,10.34
2023-04-15T13:05:20.977Z,10.39
2023-04-15T13:07:15.868Z,10.42
2023-04-15T13:09:09.009Z,10.47
2023-04-15T13:11:01.957Z,10.50
2023-04-15T13:12:56.901Z,10.54
2023-04-15T13:14:49.878Z,10.57
2023-04-15T13:16:44.499Z,10.60
2023-04-15T13:18:37.651Z,10.60
2023-04-15T13:20:30.724Z,10.60
2023-04-15T13:22:23.647Z,10.62
2023-04-15T13:24:21.503Z,10.62
2023-04-15T13:26:15.167Z,10.64
2023-04-15T13:28:08.017Z,10.64
2023-04-15T13:30:01.276Z,10.67
2023-04-15T13:31:54.743Z,10.71
2023-04-15T13:33:48.188Z,10.74
2023-04-15T13:35:41.133Z,10.76
2023-04-15T13:37:33.982Z,10.79
2023-04-15T13:39:26.829Z,10.81
2023-04-15T13:41:21.358Z,10.83
2023-04-15T13:43:14.261Z,10.85
2023-04-15T13:45:07.866Z,10.87
2023-04-15T13:47:01.197Z,10.88
2023-04-15T13:48:54.131Z,10.91
2023-04-15T13:50:46.941Z,10.94
2023-04-15T13:52:39.822Z,10.96
2023-04-15T13:54:37.800Z,10.97
2023-04-15T13:56:32.259Z,10.99
2023-04-15T13:58:26.140Z,11.04
2023-04-15T14:00:19.088Z,11.09
2023-04-15T14:02:12.618Z,11.20
2023-04-15T14:04:06.422Z,11.32
2023-04-15T14:05:59.679Z,11.41
2023-04-15T14:07:53.869Z,11.48
2023-04-15T14:09:48.352Z,11.53
2023-04-15T14:11:41.287Z,11.59
2023-04-15T14:13:34.949Z,11.67
2023-04-15T14:15:27.903Z,11.75
2023-04-15T14:17:21.281Z,11.82
2023-04-15T14:19:15.224Z,11.89
2023-04-15T14:21:08.068Z,11.94
2023-04-15T14:23:01.060Z,11.93
2023-04-15T14:24:55.714Z,11.93
2023-04-15T14:26:48.657Z,11.92
2023-04-15T14:28:43.140Z,11.90
2023-04-15T14:30:36.246Z,11.90
2023-04-15T14:32:29.385Z,11.90
2023-04-15T14:34:25.259Z,11.86
2023-04-15T14:36:18.211Z,11.84
2023-04-15T14:38:11.697Z,11.82
2023-04-15T14:40:05.226Z,11.80
2023-04-15T14:41:58.089Z,11.77
2023-04-15T14:43:50.919Z,11.75
2023-04-15T14:45:45.420Z,11.73
2023-04-15T14:47:38.698Z,11.70
2023-04-15T14:49:32.329Z,11.67
2023-04-15T14:51:25.379Z,11.64
2023-04-15T14:53:18.634Z,11.60
2023-04-15T14:55:12.871Z,11.59
2023-04-15T14:57:06.069Z,11.58
2023-04-15T14:58:59.018Z,11.57
2023-04-15T15:00:51.880Z,11.55
2023-04-15T15:02:47.745Z,11.55
2023-04-15T15:04:42.317Z,11.57
2023-04-15T15:06:35.938Z,11.59
2023-04-15T15:08:28.977Z,11.59
2023-04-15T15:10:34.984Z,11.58
2023-04-15T15:12:35.662Z,11.55
2023-04-15T15:14:29.945Z,11.55
2023-04-15T15:16:22.837Z,11.57
2023-04-15T15:18:17.932Z,11.59
2023-04-15T15:20:11.160Z,11.61
2023-04-15T15:22:04.599Z,11.62
2023-04-15T15:23:57.560Z,11.62
2023-04-15T15:25:50.600Z,11.62
2023-04-15T15:27:43.648Z,11.60
2023-04-15T15:29:37.823Z,11.61
2023-04-15T15:31:31.026Z,11.60
2023-04-15T15:33:27.650Z,11.54
2023-04-15T15:35:23.455Z,11.50
2023-04-15T15:37:18.054Z,11.49
2023-04-15T15:39:11.073Z,11.45
2023-04-15T15:41:04.575Z,11.42
2023-04-15T15:42:57.478Z,11.39
2023-04-15T15:44:50.421Z,11.38
2023-04-15T15:46:43.221Z,11.35
2023-04-15T15:48:36.319Z,11.34
2023-04-15T15:51:30.742Z,11.33
2023-04-15T15:54:03.371Z,11.26
2023-04-15T15:55:57.317Z,11.24
2023-04-15T15:57:51.619Z,11.22
2023-04-15T15:59:47.494Z,11.19
2023-04-15T16:01:40.620Z,11.17
2023-04-15T16:03:33.692Z,11.15
2023-04-15T16:05:26.706Z,11.12
2023-04-15T16:07:19.940Z,11.10
2023-04-15T16:09:14.216Z,11.08
2023-04-15T16:11:07.966Z,11.06
2023-04-15T16:13:02.354Z,11.05
2023-04-15T16:14:55.543Z,11.04
2023-04-15T16:16:48.540Z,11.03
2023-04-15T16:18:41.856Z,11.02
2023-04-15T16:20:34.696Z,11.02
2023-04-15T16:22:27.655Z,11.00
2023-04-15T16:24:20.695Z,10.98
2023-04-15T16:26:13.565Z,10.95
2023-04-15T16:28:18.542Z,10.92
2023-04-15T16:30:19.034Z,10.90
2023-04-15T16:32:12.978Z,10.88
2023-04-15T16:34:07.190Z,10.88
2023-04-15T16:36:00.242Z,10.87
2023-04-15T16:37:53.144Z,10.87
2023-04-15T16:39:46.193Z,10.87
2023-04-15T16:41:39.963Z,10.86
2023-04-15T16:43:32.913Z,10.84
2023-04-15T16:45:25.965Z,10.83
2023-04-15T16:47:18.810Z,10.81
2023-04-15T16:49:12.202Z,10.78
2023-04-15T16:51:05.727Z,10.77
2023-04-15T16:52:58.884Z,10.75
2023-04-15T16:54:52.261Z,10.72
2023-04-15T16:56:45.599Z,10.68
2023-04-15T16:58:38.546Z,10.66
2023-04-15T17:00:33.021Z,10.64
2023-04-15T17:02:26.589Z,10.62
2023-04-15T17:04:23.260Z,10.60
2023-04-15T17:06:16.579Z,10.56
2023-04-15T17:08:11.081Z,10.54
2023-04-15T17:10:05.351Z,10.50
2023-04-15T17:11:59.216Z,10.47
2023-04-15T17:13:52.419Z,10.45
2023-04-15T17:15:45.361Z,10.43
2023-04-15T17:17:38.413Z,10.44
2023-04-15T17:19:31.414Z,10.44
2023-04-15T17:21:26.103Z,10.44
2023-04-15T17:23:19.051Z,10.44
2023-04-15T17:25:13.950Z,10.44
2023-04-15T17:27:06.994Z,10.43
2023-04-15T17:29:00.047Z,10.43
2023-04-15T17:30:53.193Z,10.42
2023-04-15T17:32:46.194Z,10.41
2023-04-15T17:34:50.099Z,10.41
2023-04-15T17:36:44.649Z,10.42
2023-04-15T17:38:37.705Z,10.40
2023-04-15T17:40:31.457Z,10.36
2023-04-15T17:42:24.384Z,10.35
2023-04-15T17:44:17.255Z,10.33
2023-04-15T17:46:12.218Z,10.32
2023-04-15T17:48:05.464Z,10.31
2023-04-15T17:49:58.561Z,10.30
2023-04-15T17:51:55.085Z,10.30
2023-04-15T17:53:48.340Z,10.31
2023-04-15T17:55:41.189Z,10.30
2023-04-15T17:57:34.134Z,10.29
2023-04-15T17:59:28.004Z,10.30
2023-04-15T18:01:22.460Z,10.29
2023-04-15T18:03:15.703Z,10.28
2023-04-15T18:05:09.605Z,10.28
2023-04-15T18:07:02.680Z,10.27
2023-04-15T18:08:56.337Z,10.27
2023-04-15T18:10:49.280Z,10.26
2023-04-15T18:12:42.634Z,10.24
2023-04-15T18:14:39.492Z,10.23
2023-04-15T18:16:33.032Z,10.22
2023-04-15T18:18:26.599Z,10.21
2023-04-15T18:20:19.758Z,10.20
2023-04-15T18:22:13.115Z,10.18
2023-04-15T18:24:07.161Z,10.17
2023-04-15T18:26:00.779Z,10.17
2023-04-15T18:27:55.045Z,10.14
2023-04-15T18:29:48.384Z,10.11
2023-04-15T18:31:42.183Z,10.09
2023-04-15T18:33:36.022Z,10.07
2023-04-15T18:35:29.997Z,10.06
2023-04-15T18:37:23.361Z,10.03
2023-04-15T18:39:17.126Z,10.02
2023-04-15T18:41:10.238Z,10.01
2023-04-15T18:43:03.532Z,9.98
2023-04-15T18:44:56.694Z,9.97
2023-04-15T18:46:50.144Z,9.96
2023-04-15T18:48:43.092Z,9.96
2023-04-15T18:50:36.157Z,9.95
2023-04-15T18:52:30.030Z,9.93
2023-04-15T18:54:23.588Z,9.90
2023-04-15T18:56:17.457Z,9.90
2023-04-15T18:58:11.123Z,9.89
2023-04-15T19:00:05.049Z,9.95
2023-04-15T19:01:59.719Z,9.98
2023-04-15T19:03:53.050Z,9.96
2023-04-15T19:05:46.279Z,9.94
2023-04-15T19:07:39.743Z,9.91
2023-04-15T19:09:34.147Z,9.87
2023-04-15T19:11:27.281Z,9.85
2023-04-15T19:13:20.737Z,9.84
2023-04-15T19:15:13.683Z,9.82
2023-04-15T19:17:07.243Z,9.80
2023-04-15T19:19:00.499Z,9.79
2023-04-15T19:20:55.904Z,9.79
2023-04-15T19:22:49.165Z,9.79
2023-04-15T19:24:42.318Z,9.77
2023-04-15T19:26:36.997Z,9.76
2023-04-15T19:28:30.573Z,9.75
2023-04-15T19:30:23.435Z,9.73
2023-04-15T19:32:16.695Z,9.72
2023-04-15T19:34:10.332Z,9.71
2023-04-15T19:36:06.930Z,9.72
2023-04-15T19:38:01.052Z,9.70
2023-04-15T19:39:55.427Z,9.68
2023-04-15T19:41:48.588Z,9.68
2023-04-15T19:43:42.138Z,9.67
2023-04-15T19:45:35.603Z,9.66
2023-04-15T19:47:28.921Z,9.64
2023-04-15T19:49:22.319Z,9.63
2023-04-15T19:51:15.673Z,9.63
2023-04-15T19:53:08.624Z,9.62
2023-04-15T19:55:01.774Z,9.63
2023-04-15T19:56:54.723Z,9.65
2023-04-15T19:58:52.823Z,9.66
2023-04-15T20:00:46.060Z,9.68
2023-04-15T20:02:39.235Z,9.68
2023-04-15T20:04:32.478Z,9.69
2023-04-15T20:06:27.653Z,9.70
2023-04-15T20:08:20.811Z,9.71
2023-04-15T20:10:13.693Z,9.73
2023-04-15T20:12:49.389Z,9.74
2023-04-15T20:14:19.563Z,9.75
2023-04-15T20:16:13.449Z,9.75
2023-04-15T20:18:06.380Z,9.75
2023-04-15T20:19:59.254Z,9.76
2023-04-15T20:21:54.052Z,9.77
2023-04-15T20:23:46.958Z,9.79
2023-04-15T20:25:39.806Z,9.79
2023-04-15T20:27:32.669Z,9.79
2023-04-15T20:29:25.506Z,9.80
2023-04-15T20:31:18.370Z,9.81
2023-04-15T20:33:11.681Z,9.80
2023-04-15T20:35:05.692Z,9.81
2023-04-15T20:36:58.618Z,9.81
2023-04-15T20:38:51.464Z,9.80
2023-04-15T20:40:44.414Z,9.79
2023-04-15T20:42:40.246Z,9.79
2023-04-15T20:44:34.617Z,9.79
2023-04-15T20:46:28.055Z,9.79
2023-04-15T20:48:21.329Z,9.78
2023-04-15T20:50:14.173Z,9.77
2023-04-15T20:52:08.555Z,9.75
2023-04-15T20:54:02.066Z,9.74
2023-04-15T20:55:54.837Z,9.74
2023-04-15T20:57:48.848Z,9.76
2023-04-15T20:59:41.690Z,9.81
2023-04-15T21:01:34.661Z,9.88
2023-04-15T21:03:27.991Z,9.94
2023-04-15T21:05:21.244Z,10.01
2023-04-15T21:07:14.071Z,10.08
2023-04-15T21:09:07.349Z,10.14
2023-04-15T21:11:00.426Z,10.18
2023-04-15T21:12:53.223Z,10.22
2023-04-15T21:14:46.042Z,10.26
2023-04-15T21:16:38.865Z,10.32
2023-04-15T21:18:31.654Z,10.36
2023-04-15T21:20:24.550Z,10.42
2023-04-15T21:22:17.478Z,10.47
2023-04-15T21:24:10.423Z,10.51
2023-04-15T21:26:03.468Z,10.57
2023-04-15T21:27:56.515Z,10.60
2023-04-15T21:29:49.362Z,10.63
2023-04-15T21:31:42.411Z,10.66
2023-04-15T21:33:35.667Z,10.68
2023-04-15T21:35:30.358Z,10.70
2023-04-15T21:37:23.410Z,10.70
2023-04-15T21:39:17.212Z,10.68
2023-04-15T21:41:10.432Z,10.65
2023-04-15T21:43:03.479Z,10.62
2023-04-15T21:44:56.528Z,10.60
2023-04-15T21:46:49.396Z,10.57
2023-04-15T21:48:42.350Z,10.54
2023-04-15T21:50:38.039Z,10.51
2023-04-15T21:52:30.809Z,10.48
2023-04-15T21:54:23.729Z,10.46
2023-04-15T21:56:16.883Z,10.43
2023-04-15T21:58:09.885Z,10.39
2023-04-15T22:00:05.105Z,10.35
2023-04-15T22:02:00.953Z,10.33
2023-04-15T22:03:54.186Z,10.31
2023-04-15T22:05:47.267Z,10.30
2023-04-15T22:07:40.202Z,10.28
2023-04-15T22:09:33.355Z,10.25
2023-04-15T22:11:27.647Z,10.21
2023-04-15T22:13:21.504Z,10.16
2023-04-15T22:15:15.471Z,10.14
2023-04-15T22:17:08.259Z,10.11
2023-04-15T22:19:02.907Z,10.07
2023-04-15T22:20:56.573Z,10.03
2023-04-15T22:22:49.522Z,10.02
2023-04-15T22:24:47.283Z,9.99
2023-04-15T22:26:40.142Z,9.97
2023-04-15T22:28:33.076Z,9.96
2023-04-15T22:30:26.230Z,9.95
2023-04-15T22:32:19.073Z,9.96
2023-04-15T22:34:14.825Z,9.96
2023-04-15T22:36:07.944Z,9.95
2023-04-15T22:38:00.892Z,9.95
2023-04-15T22:39:53.732Z,9.94
2023-04-15T22:41:47.296Z,9.93
2023-04-15T22:43:40.137Z,9.93
2023-04-15T22:45:33.088Z,9.92
2023-04-15T22:47:25.988Z,9.92
2023-04-15T22:49:18.907Z,9.93
2023-04-15T22:51:11.832Z,9.93
2023-04-15T22:53:04.676Z,9.94
2023-04-15T22:54:57.729Z,9.94
2023-04-15T22:56:50.534Z,9.94
2023-04-15T22:58:43.419Z,9.94
2023-04-15T23:00:36.274Z,9.93
2023-04-15T23:02:29.346Z,9.93
2023-04-15T23:04:22.699Z,9.92
2023-04-15T23:06:16.436Z,9.91
2023-04-15T23:08:09.285Z,9.90
2023-04-15T23:10:02.234Z,9.88
2023-04-15T23:11:57.032Z,9.87
2023-04-15T23:13:50.896Z,9.85
2023-04-15T23:15:43.770Z,9.84
2023-04-15T23:17:36.746Z,9.82
2023-04-15T23:19:29.743Z,9.81
2023-04-15T23:21:24.255Z,9.78
2023-04-15T23:23:18.885Z,9.77
2023-04-15T23:25:11.765Z,9.77
2023-04-15T23:27:04.708Z,9.77
2023-04-15T23:28:57.672Z,9.77
2023-04-15T23:30:50.601Z,9.77
2023-04-15T23:32:43.596Z,9.76
2023-04-15T23:34:37.635Z,9.76
2023-04-15T23:36:30.569Z,9.75
2023-04-15T23:38:23.417Z,9.75
2023-04-15T23:40:16.598Z,9.74
2023-04-15T23:42:10.344Z,9.73
2023-04-15T23:44:03.498Z,9.73
2023-04-15T23:45:56.363Z,9.72
2023-04-15T23:47:49.266Z,9.70
2023-04-15T23:49:42.457Z,9.72
2023-04-15T23:51:35.384Z,9.73
2023-04-15T23:53:29.873Z,9.73
2023-04-15T23:55:22.821Z,9.73
2023-04-15T23:57:15.686Z,9.73
2023-04-15T23:59:09.366Z,9.72
